createdAt,value
2023-01-29T00:00:12.747Z,5.97
2023-01-29T00:02:40.756Z,5.35
2023-01-29T00:05:26.131Z,5.45
2023-01-29T00:07:54.586Z,6.20
2023-01-29T00:10:23.695Z,6.13
2023-01-29T00:12:51.666Z,5.80
2023-01-29T00:15:20.630Z,6.00
2023-01-29T00:17:48.304Z,6.05
2023-01-29T00:20:16.657Z,6.35
2023-01-29T00:22:44.504Z,6.70
2023-01-29T00:25:12.551Z,6.60
2023-01-29T00:27:41.553Z,6.78
2023-01-29T00:30:13.145Z,6.60
2023-01-29T00:32:41.105Z,6.65
2023-01-29T00:35:10.187Z,6.38
2023-01-29T00:37:38.450Z,6.95
2023-01-29T00:40:07.536Z,6.93
2023-01-29T00:42:52.717Z,7.50
2023-01-29T00:45:21.896Z,7.32
2023-01-29T00:47:49.641Z,6.63
2023-01-29T00:50:17.748Z,8.15
2023-01-29T00:52:45.850Z,8.02
2023-01-29T00:55:13.736Z,8.02
2023-01-29T00:57:41.376Z,8.27
2023-01-29T01:00:12.089Z,7.85
2023-01-29T01:02:59.037Z,7.65
2023-01-29T01:05:26.788Z,7.53
2023-01-29T01:07:58.219Z,8.00
2023-01-29T01:10:27.188Z,8.55
2023-01-29T01:12:56.721Z,8.77
2023-01-29T01:15:25.697Z,7.93
2023-01-29T01:17:55.820Z,9.30
2023-01-29T01:20:23.897Z,9.50
2023-01-29T01:22:51.594Z,8.43
2023-01-29T01:25:19.427Z,8.80
2023-01-29T01:27:47.175Z,9.32
2023-01-29T01:30:17.664Z,8.82
2023-01-29T01:32:45.742Z,9.52
2023-01-29T01:35:14.892Z,9.32
2023-01-29T01:37:42.771Z,9.70
2023-01-29T01:40:18.241Z,10.88
2023-01-29T01:42:48.273Z,9.95
2023-01-29T01:45:20.905Z,9.75
2023-01-29T01:47:53.443Z,10.52
2023-01-29T01:50:27.909Z,10.30
2023-01-29T01:53:00.918Z,10.57
2023-01-29T01:55:31.183Z,11.63
2023-01-29T01:58:10.146Z,10.60
2023-01-29T02:00:38.130Z,11.63
2023-01-29T02:03:24.827Z,10.68
2023-01-29T02:06:12.820Z,11.23
2023-01-29T02:09:05.638Z,10.85
2023-01-29T02:11:33.310Z,11.98
2023-01-29T02:14:01.026Z,11.38
2023-01-29T02:16:28.818Z,11.98
2023-01-29T02:18:57.020Z,12.00
2023-01-29T02:21:51.608Z,11.65
2023-01-29T02:24:42.971Z,11.43
2023-01-29T02:27:15.017Z,11.38
2023-01-29T02:29:56.136Z,11.43
2023-01-29T02:32:31.590Z,12.00
2023-01-29T02:35:28.600Z,11.77
2023-01-29T02:38:02.784Z,10.88
2023-01-29T02:40:35.468Z,11.43
2023-01-29T02:43:14.181Z,11.55
2023-01-29T02:45:48.585Z,12.05
2023-01-29T02:48:20.630Z,11.93
2023-01-29T02:50:55.850Z,11.65
2023-01-29T02:53:28.555Z,11.50
2023-01-29T02:56:00.979Z,11.77
2023-01-29T02:58:34.114Z,11.60
2023-01-29T03:01:08.837Z,11.23
2023-01-29T03:03:41.640Z,11.55
2023-01-29T03:06:20.620Z,11.55
2023-01-29T03:08:54.317Z,12.77
2023-01-29T03:11:22.474Z,11.68
2023-01-29T03:13:54.397Z,11.45
2023-01-29T03:16:32.183Z,12.02
2023-01-29T03:22:32.767Z,11.90
2023-01-29T03:25:20.674Z,11.57
2023-01-29T03:28:10.889Z,11.02
2023-01-29T03:31:01.706Z,12.27
2023-01-29T03:33:33.614Z,13.00
2023-01-29T03:36:06.596Z,12.63
2023-01-29T03:38:34.382Z,11.98
2023-01-29T03:41:09.244Z,12.55
2023-01-29T03:43:46.192Z,11.95
2023-01-29T03:46:28.982Z,12.35
2023-01-29T03:49:04.115Z,12.32
2023-01-29T03:51:38.506Z,12.52
2023-01-29T03:54:14.445Z,11.50
2023-01-29T03:56:55.005Z,12.80
2023-01-29T03:59:34.665Z,13.23
2023-01-29T04:02:06.649Z,11.95
2023-01-29T04:04:38.354Z,12.75
2023-01-29T04:07:11.787Z,12.75
2023-01-29T04:09:46.809Z,12.35
2023-01-29T04:12:19.651Z,13.02
2023-01-29T04:14:50.553Z,12.45
2023-01-29T04:17:23.856Z,12.35
2023-01-29T04:19:54.604Z,13.45
2023-01-29T04:22:29.136Z,13.30
2023-01-29T04:25:02.352Z,13.23
2023-01-29T04:27:44.177Z,12.05
2023-01-29T04:30:23.849Z,12.93
2023-01-29T04:33:03.957Z,12.68
2023-01-29T04:35:45.021Z,11.75
2023-01-29T04:38:18.641Z,12.95
2023-01-29T04:40:55.335Z,12.90
2023-01-29T04:43:29.217Z,13.02
2023-01-29T04:46:10.439Z,12.48
2023-01-29T04:48:50.535Z,13.48
2023-01-29T04:51:25.953Z,12.98
2023-01-29T04:54:00.942Z,14.02
2023-01-29T04:56:37.076Z,14.38
2023-01-29T04:59:08.641Z,13.88
2023-01-29T05:01:38.958Z,13.98
2023-01-29T05:06:40.207Z,13.45
2023-01-29T05:09:09.402Z,14.48
2023-01-29T05:11:38.063Z,15.60
2023-01-29T05:14:08.746Z,14.00
2023-01-29T05:16:42.855Z,15.10
2023-01-29T05:19:11.740Z,15.25
2023-01-29T05:21:44.334Z,16.88
2023-01-29T05:24:14.975Z,16.27
2023-01-29T05:27:01.092Z,16.08
2023-01-29T05:29:28.824Z,15.85
2023-01-29T05:31:56.563Z,15.75
2023-01-29T05:34:24.335Z,15.45
2023-01-29T05:36:53.520Z,16.58
2023-01-29T05:39:21.207Z,17.17
2023-01-29T05:41:49.833Z,17.85
2023-01-29T05:44:17.601Z,16.52
2023-01-29T05:46:46.089Z,17.42
2023-01-29T05:49:13.854Z,18.38
2023-01-29T05:51:41.519Z,17.10
2023-01-29T05:54:12.800Z,18.10
2023-01-29T05:56:40.605Z,18.30
2023-01-29T05:59:08.350Z,18.38
2023-01-29T06:01:35.976Z,18.27
2023-01-29T06:04:03.748Z,18.83
2023-01-29T06:06:31.462Z,18.33
2023-01-29T06:08:59.143Z,20.13
2023-01-29T06:11:28.240Z,19.20
2023-01-29T06:13:55.924Z,18.75
2023-01-29T06:16:23.636Z,18.30
2023-01-29T06:18:51.269Z,18.52
2023-01-29T06:21:20.134Z,18.63
2023-01-29T06:23:47.985Z,19.58
2023-01-29T06:26:16.778Z,17.88
2023-01-29T06:28:46.090Z,20.00
2023-01-29T06:31:36.979Z,19.23
2023-01-29T06:34:01.576Z,20.42
2023-01-29T06:36:29.225Z,19.70
2023-01-29T06:38:57.021Z,19.67
2023-01-29T06:41:25.528Z,18.35
2023-01-29T06:43:54.726Z,19.50
2023-01-29T06:46:22.578Z,19.40
2023-01-29T06:48:50.317Z,19.27
2023-01-29T06:51:18.130Z,19.15
2023-01-29T06:53:46.723Z,19.02
2023-01-29T06:56:14.714Z,20.58
2023-01-29T06:58:43.463Z,20.02
2023-01-29T07:01:25.503Z,20.30
2023-01-29T07:04:00.884Z,19.23
2023-01-29T07:06:29.389Z,19.98
2023-01-29T07:08:57.626Z,20.48
2023-01-29T07:11:25.400Z,21.15
2023-01-29T07:13:53.145Z,19.30
2023-01-29T07:16:22.239Z,20.42
2023-01-29T07:18:50.022Z,20.20
2023-01-29T07:21:17.728Z,21.30
2023-01-29T07:23:45.458Z,21.60
2023-01-29T07:26:13.164Z,20.73
2023-01-29T07:28:41.814Z,20.75
2023-01-29T07:31:12.655Z,21.05
2023-01-29T07:33:41.943Z,20.77
2023-01-29T07:36:10.336Z,21.60
2023-01-29T07:38:38.013Z,21.90
2023-01-29T07:41:05.974Z,19.90
2023-01-29T07:43:33.747Z,20.42
2023-01-29T07:46:03.302Z,20.33
2023-01-29T07:48:31.082Z,20.97
2023-01-29T07:51:00.329Z,21.42
2023-01-29T07:53:29.040Z,21.48
2023-01-29T07:55:57.019Z,22.63
2023-01-29T07:58:24.818Z,21.90
2023-01-29T08:00:52.553Z,22.83
2023-01-29T08:03:21.039Z,22.35
2023-01-29T08:05:49.477Z,22.17
2023-01-29T08:08:19.284Z,22.70
2023-01-29T08:10:46.956Z,22.00
2023-01-29T08:13:14.702Z,22.33
2023-01-29T08:15:45.174Z,22.00
2023-01-29T08:18:13.296Z,22.42
2023-01-29T08:20:41.197Z,24.10
2023-01-29T08:23:13.591Z,22.73
2023-01-29T08:25:43.174Z,22.63
2023-01-29T08:28:11.770Z,22.88
2023-01-29T08:30:39.889Z,22.70
2023-01-29T08:33:07.734Z,22.75
2023-01-29T08:35:35.355Z,21.70
2023-01-29T08:38:04.402Z,22.38
2023-01-29T08:40:33.611Z,21.23
2023-01-29T08:43:06.121Z,21.70
2023-01-29T08:45:37.153Z,21.00
2023-01-29T08:48:05.382Z,22.52
2023-01-29T08:50:34.808Z,22.95
2023-01-29T08:53:03.428Z,21.67
2023-01-29T08:55:31.417Z,23.48
2023-01-29T08:57:59.084Z,22.10
2023-01-29T09:00:28.125Z,23.13
2023-01-29T09:02:55.787Z,22.85
2023-01-29T09:05:23.456Z,22.33
2023-01-29T09:07:52.676Z,22.83
2023-01-29T09:10:21.322Z,22.63
2023-01-29T09:12:49.383Z,21.95
2023-01-29T09:15:17.463Z,23.83
2023-01-29T09:17:46.763Z,22.90
2023-01-29T09:20:14.387Z,21.83
2023-01-29T09:22:42.233Z,22.35
2023-01-29T09:25:10.695Z,22.45
2023-01-29T09:27:38.531Z,22.08
2023-01-29T09:30:07.993Z,22.90
2023-01-29T09:35:25.199Z,23.35
2023-01-29T09:37:53.018Z,23.63
2023-01-29T09:40:27.594Z,22.45
2023-01-29T09:43:02.430Z,22.63
2023-01-29T09:45:31.521Z,25.30
2023-01-29T09:48:01.767Z,23.08
2023-01-29T09:50:36.135Z,23.05
2023-01-29T09:53:12.420Z,22.80
2023-01-29T09:55:46.669Z,23.25
2023-01-29T09:58:22.031Z,22.38
2023-01-29T10:00:59.413Z,22.95
2023-01-29T10:03:46.104Z,20.95
2023-01-29T10:06:26.261Z,21.75
2023-01-29T10:09:34.256Z,21.58
2023-01-29T10:12:16.417Z,21.90
2023-01-29T10:14:54.433Z,21.75
2023-01-29T10:17:40.035Z,21.08
2023-01-29T10:20:28.301Z,22.60
2023-01-29T10:23:10.208Z,21.30
2023-01-29T10:25:42.025Z,20.65
2023-01-29T10:28:18.511Z,20.45
2023-01-29T10:30:50.078Z,20.85
2023-01-29T10:33:23.091Z,20.33
2023-01-29T10:35:56.891Z,19.38
2023-01-29T10:38:36.154Z,21.77
2023-01-29T10:41:18.999Z,18.92
2023-01-29T10:43:59.182Z,19.30
2023-01-29T10:46:39.223Z,17.35
2023-01-29T10:49:21.157Z,18.75
2023-01-29T10:52:04.562Z,17.52
2023-01-29T10:54:48.767Z,18.70
2023-01-29T10:57:27.009Z,18.02
2023-01-29T11:00:07.243Z,18.90
2023-01-29T11:02:35.078Z,17.45
2023-01-29T11:05:02.989Z,17.73
2023-01-29T11:07:31.968Z,17.13
2023-01-29T11:10:08.839Z,17.17
2023-01-29T11:12:39.054Z,16.02
2023-01-29T11:15:15.696Z,15.77
2023-01-29T11:18:02.590Z,15.75
2023-01-29T11:20:32.830Z,15.43
2023-01-29T11:23:00.549Z,15.82
2023-01-29T11:25:32.521Z,15.32
2023-01-29T11:28:01.933Z,15.48
2023-01-29T11:30:32.151Z,15.00
2023-01-29T11:33:08.842Z,14.63
2023-01-29T11:35:37.579Z,15.15
2023-01-29T11:38:18.482Z,15.25
2023-01-29T11:40:47.796Z,14.75
2023-01-29T11:43:24.133Z,15.30
2023-01-29T11:45:53.713Z,13.48
2023-01-29T11:48:23.159Z,13.30
2023-01-29T11:50:56.572Z,13.95
2023-01-29T11:53:34.998Z,13.70
2023-01-29T11:56:16.825Z,12.85
2023-01-29T11:58:46.372Z,12.55
2023-01-29T12:01:16.752Z,13.43
2023-01-29T12:03:49.020Z,12.98
2023-01-29T12:06:21.561Z,12.55
2023-01-29T12:08:56.985Z,11.82
2023-01-29T12:11:31.592Z,13.82
2023-01-29T12:14:01.115Z,12.40
2023-01-29T12:16:33.087Z,12.27
2023-01-29T12:19:11.504Z,12.75
2023-01-29T12:21:47.899Z,12.93
2023-01-29T12:24:30.759Z,11.85
2023-01-29T12:27:08.444Z,12.13
2023-01-29T12:29:46.044Z,11.52
2023-01-29T12:32:28.865Z,13.20
2023-01-29T12:35:02.824Z,11.52
2023-01-29T12:37:39.818Z,11.73
2023-01-29T12:40:13.900Z,11.50
2023-01-29T12:42:47.228Z,11.57
2023-01-29T12:45:19.100Z,12.00
2023-01-29T12:47:51.317Z,11.48
2023-01-29T12:50:23.088Z,11.68
2023-01-29T12:52:55.009Z,11.60
2023-01-29T12:55:26.393Z,12.95
2023-01-29T12:57:59.618Z,11.98
2023-01-29T13:00:30.324Z,11.63
2023-01-29T13:03:05.096Z,11.50
2023-01-29T13:05:40.453Z,11.85
2023-01-29T13:08:15.487Z,12.60
2023-01-29T13:10:47.864Z,11.70
2023-01-29T13:13:23.073Z,13.07
2023-01-29T13:15:50.916Z,12.15
2023-01-29T13:18:34.081Z,12.20
2023-01-29T13:21:02.287Z,13.10
2023-01-29T13:23:35.707Z,12.18
2023-01-29T13:26:03.746Z,11.50
2023-01-29T13:28:33.526Z,12.88
2023-01-29T13:31:14.309Z,13.73
2023-01-29T13:33:44.273Z,12.43
2023-01-29T13:36:17.781Z,13.43
2023-01-29T13:38:46.016Z,12.80
2023-01-29T13:41:15.774Z,12.43
2023-01-29T13:43:50.907Z,13.40
2023-01-29T13:46:21.297Z,12.40
2023-01-29T13:48:51.573Z,13.23
2023-01-29T13:51:22.805Z,12.48
2023-01-29T13:53:57.232Z,12.10
2023-01-29T13:56:45.384Z,12.57
2023-01-29T13:59:25.908Z,12.15
2023-01-29T14:04:34.111Z,13.05
2023-01-29T14:07:04.081Z,12.43
2023-01-29T14:10:14.120Z,13.02
2023-01-29T14:12:46.915Z,13.35
2023-01-29T14:15:25.351Z,12.48
2023-01-29T14:18:05.666Z,11.73
2023-01-29T14:20:45.471Z,13.18
2023-01-29T14:25:50.489Z,13.15
2023-01-29T14:28:23.775Z,12.50
2023-01-29T14:30:53.684Z,13.07
2023-01-29T14:33:33.834Z,13.73
2023-01-29T14:36:06.531Z,13.55
2023-01-29T14:38:35.216Z,14.35
2023-01-29T14:41:14.861Z,14.10
2023-01-29T14:43:42.737Z,13.87
2023-01-29T14:46:46.283Z,14.52
2023-01-29T14:49:35.594Z,14.70
2023-01-29T14:52:03.827Z,14.55
2023-01-29T14:54:34.013Z,13.95
2023-01-29T14:57:07.207Z,14.88
2023-01-29T14:59:38.893Z,15.18
2023-01-29T15:02:18.267Z,15.27
2023-01-29T15:04:50.708Z,15.48
2023-01-29T15:07:29.290Z,15.35
2023-01-29T15:10:21.475Z,15.80
2023-01-29T15:12:53.805Z,15.57
2023-01-29T15:15:32.308Z,15.88
2023-01-29T15:18:06.377Z,15.93
2023-01-29T15:20:36.384Z,15.60
2023-01-29T15:23:06.072Z,17.20
2023-01-29T15:25:37.766Z,16.33
2023-01-29T15:28:10.132Z,16.80
2023-01-29T15:30:38.982Z,17.05
2023-01-29T15:33:11.610Z,18.63
2023-01-29T15:35:41.479Z,16.70
2023-01-29T15:38:17.630Z,18.10
2023-01-29T15:40:53.791Z,18.02
2023-01-29T15:43:23.790Z,16.95
2023-01-29T15:45:52.752Z,17.35
2023-01-29T15:48:29.232Z,16.83
2023-01-29T15:50:58.297Z,17.27
2023-01-29T15:53:32.090Z,17.27
2023-01-29T15:56:00.170Z,17.38
2023-01-29T15:58:32.460Z,17.42
2023-01-29T16:01:01.906Z,17.73
2023-01-29T16:03:33.738Z,16.40
2023-01-29T16:06:02.867Z,17.25
2023-01-29T16:08:30.648Z,18.38
2023-01-29T16:11:01.684Z,17.35
2023-01-29T16:13:31.802Z,17.73
2023-01-29T16:16:01.572Z,17.33
2023-01-29T16:18:35.331Z,17.88
2023-01-29T16:21:08.749Z,16.83
2023-01-29T16:23:41.722Z,17.60
2023-01-29T16:26:13.927Z,16.58
2023-01-29T16:28:42.369Z,17.63
2023-01-29T16:31:11.515Z,15.88
2023-01-29T16:33:43.736Z,17.88
2023-01-29T16:36:17.809Z,16.95
2023-01-29T16:38:48.707Z,17.63
2023-01-29T16:41:28.429Z,16.60
2023-01-29T16:43:58.597Z,17.30
2023-01-29T16:46:32.506Z,18.20
2023-01-29T16:49:02.223Z,17.75
2023-01-29T16:51:31.096Z,17.90
2023-01-29T16:54:07.558Z,17.50
2023-01-29T16:56:36.091Z,15.88
2023-01-29T16:59:06.603Z,17.02
2023-01-29T17:01:36.866Z,18.25
2023-01-29T17:04:11.402Z,18.45
2023-01-29T17:06:42.557Z,17.80
2023-01-29T17:09:22.079Z,18.45
2023-01-29T17:11:55.955Z,17.77
2023-01-29T17:14:24.970Z,17.35
2023-01-29T17:16:56.071Z,17.38
2023-01-29T17:19:25.810Z,17.77
2023-01-29T17:21:53.699Z,19.77
2023-01-29T17:24:21.315Z,17.52
2023-01-29T17:26:49.585Z,18.33
2023-01-29T17:29:20.368Z,17.27
2023-01-29T17:31:48.104Z,18.15
2023-01-29T17:34:18.623Z,18.92
2023-01-29T17:36:47.721Z,18.30
2023-01-29T17:39:18.874Z,18.35
2023-01-29T17:41:48.349Z,18.85
2023-01-29T17:44:16.324Z,17.92
2023-01-29T17:46:44.008Z,17.73
2023-01-29T17:49:22.508Z,19.08
2023-01-29T17:51:51.797Z,17.75
2023-01-29T17:54:19.788Z,18.40
2023-01-29T17:56:47.714Z,18.67
2023-01-29T17:59:16.749Z,17.15
2023-01-29T18:01:44.964Z,17.92
2023-01-29T18:04:12.793Z,18.15
2023-01-29T18:06:42.101Z,18.02
2023-01-29T18:09:14.659Z,18.30
2023-01-29T18:11:42.404Z,17.45
2023-01-29T18:14:14.055Z,17.38
2023-01-29T18:16:43.319Z,18.20
2023-01-29T18:19:15.227Z,16.20
2023-01-29T18:21:42.907Z,16.10
2023-01-29T18:24:11.965Z,16.38
2023-01-29T18:26:39.640Z,14.88
2023-01-29T18:29:07.415Z,15.20
2023-01-29T18:31:35.080Z,15.45
2023-01-29T18:34:02.785Z,14.23
2023-01-29T18:36:30.553Z,14.45
2023-01-29T18:38:58.719Z,14.02
2023-01-29T18:41:27.722Z,16.48
2023-01-29T18:43:55.343Z,14.70
2023-01-29T18:46:24.213Z,15.48
2023-01-29T18:48:51.975Z,16.27
2023-01-29T18:51:19.666Z,14.70
2023-01-29T18:53:50.904Z,14.88
2023-01-29T18:56:19.473Z,14.95
2023-01-29T18:58:52.302Z,14.32
2023-01-29T19:01:23.584Z,15.13
2023-01-29T19:03:52.017Z,14.50
2023-01-29T19:06:19.799Z,13.93
2023-01-29T19:08:47.874Z,14.85
2023-01-29T19:11:15.551Z,15.15
2023-01-29T19:13:43.394Z,13.90
2023-01-29T19:16:14.017Z,14.77
2023-01-29T19:18:41.751Z,14.77
2023-01-29T19:21:11.589Z,13.68
2023-01-29T19:23:39.435Z,14.50
2023-01-29T19:26:07.327Z,13.05
2023-01-29T19:28:34.949Z,14.93
2023-01-29T19:31:02.731Z,14.70
2023-01-29T19:33:32.006Z,14.10
2023-01-29T19:36:00.409Z,13.50
2023-01-29T19:38:28.721Z,14.70
2023-01-29T19:40:56.387Z,14.07
2023-01-29T19:43:24.136Z,14.15
2023-01-29T19:45:59.089Z,13.88
2023-01-29T19:48:27.117Z,13.02
2023-01-29T19:50:57.855Z,13.15
2023-01-29T19:53:26.432Z,14.35
2023-01-29T19:56:01.012Z,13.90
2023-01-29T19:58:29.541Z,13.10
2023-01-29T20:00:58.187Z,13.65
2023-01-29T20:03:26.787Z,12.20
2023-01-29T20:05:56.281Z,11.43
2023-01-29T20:08:24.782Z,9.93
2023-01-29T20:10:52.533Z,11.98
2023-01-29T20:13:20.231Z,12.27
2023-01-29T20:15:49.808Z,11.15
2023-01-29T20:18:18.557Z,11.27
2023-01-29T20:20:47.874Z,11.23
2023-01-29T20:23:31.730Z,11.38
2023-01-29T20:26:05.328Z,11.02
2023-01-29T20:28:32.993Z,11.20
2023-01-29T20:31:00.876Z,9.38
2023-01-29T20:33:29.052Z,10.63
2023-01-29T20:35:57.554Z,10.18
2023-01-29T20:38:31.523Z,10.73
2023-01-29T20:41:04.245Z,11.02
2023-01-29T20:43:32.058Z,10.23
2023-01-29T20:46:00.214Z,10.75
2023-01-29T20:48:27.992Z,9.93
2023-01-29T20:50:55.671Z,9.98
2023-01-29T20:53:23.342Z,9.40
2023-01-29T20:55:52.573Z,10.55
2023-01-29T20:58:20.544Z,10.25
2023-01-29T21:00:48.358Z,10.50
2023-01-29T21:03:16.095Z,10.23
2023-01-29T21:05:43.822Z,10.52
2023-01-29T21:08:11.931Z,9.93
2023-01-29T21:10:40.996Z,9.52
2023-01-29T21:13:10.951Z,10.02
2023-01-29T21:15:38.706Z,10.23
2023-01-29T21:18:07.459Z,9.48
2023-01-29T21:20:59.905Z,10.07
2023-01-29T21:23:27.803Z,10.77
2023-01-29T21:26:01.066Z,9.73
2023-01-29T21:28:30.178Z,9.80
2023-01-29T21:31:04.265Z,9.23
2023-01-29T21:33:32.122Z,10.32
2023-01-29T21:36:00.405Z,10.43
2023-01-29T21:38:28.154Z,9.65
2023-01-29T21:41:00.680Z,9.25
2023-01-29T21:43:28.752Z,10.32
2023-01-29T21:45:57.271Z,9.68
2023-01-29T21:48:25.068Z,10.82
2023-01-29T21:50:53.693Z,10.60
2023-01-29T21:53:21.541Z,10.07
2023-01-29T21:55:49.421Z,10.25
2023-01-29T21:58:17.054Z,11.10
2023-01-29T22:00:48.497Z,10.13
2023-01-29T22:03:16.508Z,9.52
2023-01-29T22:05:44.166Z,10.60
2023-01-29T22:08:11.901Z,10.60
2023-01-29T22:10:39.549Z,10.70
2023-01-29T22:13:07.267Z,10.98
2023-01-29T22:15:35.412Z,10.38
2023-01-29T22:18:04.510Z,10.82
2023-01-29T22:20:32.174Z,10.75
2023-01-29T22:23:00.427Z,10.57
2023-01-29T22:25:28.627Z,10.13
2023-01-29T22:27:56.264Z,10.13
2023-01-29T22:30:24.076Z,10.27
2023-01-29T22:32:52.046Z,10.90
2023-01-29T22:35:21.078Z,11.48
2023-01-29T22:37:48.714Z,10.82
2023-01-29T22:40:16.651Z,10.73
2023-01-29T22:42:44.549Z,11.30
2023-01-29T22:45:12.690Z,10.45
2023-01-29T22:47:40.471Z,10.63
2023-01-29T22:50:09.081Z,10.43
2023-01-29T22:52:39.377Z,9.88
2023-01-29T22:55:09.291Z,10.43
2023-01-29T22:57:37.405Z,10.60
2023-01-29T23:00:08.325Z,9.55
2023-01-29T23:02:36.030Z,10.00
2023-01-29T23:05:03.675Z,9.23
2023-01-29T23:07:31.455Z,11.25
2023-01-29T23:10:00.439Z,10.75
2023-01-29T23:12:28.111Z,10.32
2023-01-29T23:14:55.789Z,10.95
2023-01-29T23:17:23.507Z,9.73
2023-01-29T23:19:51.120Z,11.00
2023-01-29T23:22:18.781Z,11.32
2023-01-29T23:24:46.474Z,10.40
2023-01-29T23:27:14.558Z,10.43
2023-01-29T23:29:42.516Z,10.80
2023-01-29T23:32:10.292Z,11.27
2023-01-29T23:34:37.992Z,10.43
2023-01-29T23:37:05.769Z,9.60
2023-01-29T23:39:33.424Z,10.70
2023-01-29T23:42:01.443Z,9.75
2023-01-29T23:44:30.632Z,11.02
2023-01-29T23:46:59.350Z,10.45
2023-01-29T23:49:27.007Z,10.60
2023-01-29T23:51:54.653Z,10.82
2023-01-29T23:54:22.326Z,10.32
2023-01-29T23:56:50.121Z,10.38
2023-01-29T23:59:18.027Z,10.60
